Time;durP1;ratioP1;P1;durP2;ratioP2;P2;SDS_P1;SDS_P2;PMS_P1;PMS_P2;Temp;Humidity;BMP_temperature;BMP_pressure;BME280_temperature;BME280_humidity;BME280_pressure;Samples;Min_cycle;Max_cycle;Signal;HPM_P1;HPM_P2
2023/08/07 00:01:20;;;;;;;;;;;;;;;19.48;100.00;98752.69;5033437;28;858;-58
2023/08/07 00:03:48;;;;;;;;;;;;;;;19.67;100.00;98755.19;5033324;28;791;-58
2023/08/07 00:06:15;;;;;;;;;;;;;;;19.58;100.00;98756.88;5033316;28;834;-58
2023/08/07 00:08:42;;;;;;;;;;;;;;;19.55;100.00;98757.09;5033312;28;834;-58
2023/08/07 00:11:10;;;;;;;;;;;;;;;19.53;100.00;98757.56;5032608;28;862;-58
2023/08/07 00:13:37;;;;;;;;;;;;;;;19.53;100.00;98760.38;5033060;28;1890;-58
2023/08/07 00:16:04;;;;;;;;;;;;;;;19.55;100.00;98759.91;5032993;28;827;-58
2023/08/07 00:18:31;;;;;;;;;;;;;;;19.61;100.00;98769.16;5031856;28;1479;-58
2023/08/07 00:21:00;;;;;;;;;;;;;;;19.60;100.00;98767.59;5032949;28;847;-58
2023/08/07 00:23:27;;;;;;;;;;;;;;;19.72;100.00;98766.50;5032832;28;1955;-58
2023/08/07 00:25:54;;;;;;;;;;;;;;;19.80;100.00;98758.47;5033150;28;828;-58
2023/08/07 00:28:21;;;;;;;;;;;;;;;19.77;100.00;98762.22;5032900;28;830;-58
2023/08/07 00:30:48;;;;;;;;;;;;;;;19.65;100.00;98761.31;5032660;28;882;-58
2023/08/07 00:33:15;;;;;;;;;;;;;;;19.85;100.00;98751.38;5032688;28;843;-58
2023/08/07 00:35:42;;;;;;;;;;;;;;;20.02;100.00;98755.13;5032684;28;843;-58
2023/08/07 00:38:09;;;;;;;;;;;;;;;20.14;100.00;98759.63;5032646;28;870;-58
2023/08/07 00:40:37;;;;;;;;;;;;;;;20.31;100.00;98765.41;5032637;28;882;-59
2023/08/07 00:43:05;;;;;;;;;;;;;;;20.59;100.00;98773.34;5032504;28;1899;-58
2023/08/07 00:45:35;;;;;;;;;;;;;;;20.73;100.00;98761.22;5032587;28;850;-59
2023/08/07 00:48:02;;;;;;;;;;;;;;;20.95;100.00;98763.44;5032446;28;1062;-59
2023/08/07 00:50:29;;;;;;;;;;;;;;;21.16;100.00;98772.50;5032460;28;870;-58
2023/08/07 00:52:56;;;;;;;;;;;;;;;21.15;100.00;98773.03;5032351;28;859;-58
2023/08/07 00:55:23;;;;;;;;;;;;;;;21.27;100.00;98771.81;5032647;28;866;-58
2023/08/07 00:57:50;;;;;;;;;;;;;;;21.25;100.00;98763.13;5032408;28;830;-58
2023/08/07 01:00:16;;;;;;;;;;;;;;;21.38;100.00;98768.31;5032340;28;868;-58
2023/08/07 01:02:45;;;;;;;;;;;;;;;21.44;100.00;98763.50;5032115;28;1981;-59
2023/08/07 01:05:12;;;;;;;;;;;;;;;21.53;100.00;98768.94;5032377;28;810;-58
2023/08/07 01:07:39;;;;;;;;;;;;;;;21.51;100.00;98763.06;5032208;28;843;-59
2023/08/07 01:10:07;;;;;;;;;;;;;;;21.57;100.00;98763.84;5032449;28;982;-58
2023/08/07 01:12:39;;;;;;;;;;;;;;;21.55;100.00;98774.03;5032046;28;878;-57
2023/08/07 01:15:14;;;;;;;;;;;;;;;21.45;100.00;98772.72;5032016;28;879;-58
2023/08/07 01:17:42;;;;;;;;;;;;;;;21.34;100.00;98781.84;5032042;28;771;-57
2023/08/07 01:20:09;;;;;;;;;;;;;;;21.18;100.00;98781.19;5031961;28;872;-57
2023/08/07 01:22:36;;;;;;;;;;;;;;;21.08;100.00;98776.28;5030970;28;1885;-57
2023/08/07 01:25:03;;;;;;;;;;;;;;;21.03;100.00;98786.22;5031881;28;830;-57
2023/08/07 01:27:36;;;;;;;;;;;;;;;20.96;100.00;98787.44;5031888;28;851;-57
2023/08/07 01:30:21;;;;;;;;;;;;;;;20.86;100.00;98788.13;5032026;28;819;-58
2023/08/07 01:32:48;;;;;;;;;;;;;;;20.82;100.00;98799.56;5031815;28;827;-57
2023/08/07 01:35:16;;;;;;;;;;;;;;;20.84;100.00;98801.88;5032147;28;849;-58
2023/08/07 01:37:44;;;;;;;;;;;;;;;20.95;100.00;98816.81;5031736;28;839;-58
2023/08/07 01:40:12;;;;;;;;;;;;;;;21.03;100.00;98814.28;5031797;28;791;-57
2023/08/07 01:42:39;;;;;;;;;;;;;;;21.09;100.00;98822.78;5031756;28;1890;-58
2023/08/07 01:45:06;;;;;;;;;;;;;;;21.06;100.00;98823.75;5031652;28;823;-58
2023/08/07 01:47:33;;;;;;;;;;;;;;;20.90;100.00;98825.16;5032052;28;934;-59
2023/08/07 01:50:00;;;;;;;;;;;;;;;20.85;100.00;98831.53;5031606;28;888;-57
2023/08/07 01:52:27;;;;;;;;;;;;;;;20.82;100.00;98824.84;5031972;28;950;-58
2023/08/07 01:54:54;;;;;;;;;;;;;;;20.76;100.00;98840.84;5031641;28;862;-58
2023/08/07 01:57:21;;;;;;;;;;;;;;;20.70;100.00;98843.63;5031632;28;807;-58
2023/08/07 01:59:48;;;;;;;;;;;;;;;20.64;100.00;98844.84;5031930;28;858;-57
2023/08/07 02:02:15;;;;;;;;;;;;;;;20.62;100.00;98844.56;5031350;28;1989;-57
2023/08/07 02:04:43;;;;;;;;;;;;;;;20.58;100.00;98851.16;5031632;28;878;-58
2023/08/07 02:07:10;;;;;;;;;;;;;;;20.59;100.00;98863.19;5031493;28;964;-57
2023/08/07 02:09:37;;;;;;;;;;;;;;;20.56;100.00;98859.28;5031510;28;859;-58
2023/08/07 02:12:04;;;;;;;;;;;;;;;20.52;100.00;98866.38;5031470;28;862;-58
2023/08/07 02:14:31;;;;;;;;;;;;;;;20.44;100.00;98868.84;5031485;28;802;-57
2023/08/07 02:16:57;;;;;;;;;;;;;;;20.40;100.00;98871.09;5031390;28;857;-58
2023/08/07 02:19:24;;;;;;;;;;;;;;;20.38;100.00;98873.63;5031742;28;830;-58
2023/08/07 02:21:51;;;;;;;;;;;;;;;20.29;100.00;98873.75;5030009;28;1969;-57
2023/08/07 02:24:19;;;;;;;;;;;;;;;20.18;100.00;98875.19;5031369;28;814;-58
2023/08/07 02:26:46;;;;;;;;;;;;;;;20.14;100.00;98873.81;5031364;28;839;-58
2023/08/07 02:29:13;;;;;;;;;;;;;;;20.11;100.00;98878.41;5031311;28;855;-58
2023/08/07 02:31:40;;;;;;;;;;;;;;;20.09;100.00;98885.75;5031269;28;882;-58
2023/08/07 02:34:07;;;;;;;;;;;;;;;20.09;100.00;98883.72;5032543;28;876;-57
2023/08/07 02:36:34;;;;;;;;;;;;;;;20.00;100.00;98883.88;5035006;28;869;-58
2023/08/07 02:39:01;;;;;;;;;;;;;;;19.98;100.00;98875.94;5034869;28;842;-58
2023/08/07 02:41:28;;;;;;;;;;;;;;;20.05;100.00;98869.13;5035139;28;814;-58
2023/08/07 02:43:55;;;;;;;;;;;;;;;20.03;100.00;98882.88;5033395;28;1941;-58
2023/08/07 02:46:22;;;;;;;;;;;;;;;19.98;100.00;98886.38;5034731;28;1032;-58
2023/08/07 02:48:49;;;;;;;;;;;;;;;19.97;100.00;98879.22;5034564;28;1072;-58
2023/08/07 02:51:16;;;;;;;;;;;;;;;20.01;100.00;98891.00;5034639;28;822;-58
2023/08/07 02:53:43;;;;;;;;;;;;;;;20.01;100.00;98893.81;5034594;28;954;-58
2023/08/07 02:56:10;;;;;;;;;;;;;;;20.05;100.00;98890.81;5034825;28;842;-58
2023/08/07 02:58:37;;;;;;;;;;;;;;;20.07;100.00;98893.91;5034536;28;895;-58
2023/08/07 03:01:05;;;;;;;;;;;;;;;20.02;100.00;98905.81;5034392;28;869;-58
2023/08/07 03:03:33;;;;;;;;;;;;;;;19.95;100.00;98904.19;5033195;28;1906;-58
2023/08/07 03:06:00;;;;;;;;;;;;;;;19.99;100.00;98901.94;5034609;28;822;-58
2023/08/07 03:08:26;;;;;;;;;;;;;;;20.15;100.00;98903.44;5034403;28;810;-58
2023/08/07 03:10:55;;;;;;;;;;;;;;;20.18;100.00;98905.25;5034333;28;880;-58
2023/08/07 03:13:23;;;;;;;;;;;;;;;20.21;100.00;98895.88;5034250;28;795;-58
2023/08/07 03:15:50;;;;;;;;;;;;;;;20.26;100.00;98895.16;5034199;28;803;-58
2023/08/07 03:18:17;;;;;;;;;;;;;;;20.45;100.00;98906.88;5034144;28;815;-58
2023/08/07 03:20:44;;;;;;;;;;;;;;;20.51;100.00;98890.88;5034168;28;936;-58
2023/08/07 03:23:10;;;;;;;;;;;;;;;20.63;100.00;98902.25;5033940;28;1890;-58
2023/08/07 03:25:37;;;;;;;;;;;;;;;20.73;100.00;98886.78;5034101;28;952;-57
2023/08/07 03:28:04;;;;;;;;;;;;;;;20.70;100.00;98891.38;5033972;28;838;-58
2023/08/07 03:30:30;;;;;;;;;;;;;;;20.74;100.00;98905.16;5033990;28;826;-58
2023/08/07 03:32:57;;;;;;;;;;;;;;;20.65;100.00;98902.53;5033858;28;876;-57
2023/08/07 03:35:24;;;;;;;;;;;;;;;20.64;100.00;98904.56;5033846;28;823;-57
2023/08/07 03:37:51;;;;;;;;;;;;;;;20.62;100.00;98911.94;5033871;28;885;-58
2023/08/07 03:40:18;;;;;;;;;;;;;;;20.64;100.00;98903.81;5033714;28;893;-58
2023/08/07 03:42:45;;;;;;;;;;;;;;;20.65;100.00;98891.28;5033667;28;1886;-58
2023/08/07 03:45:11;;;;;;;;;;;;;;;20.64;100.00;98901.00;5032714;28;840;-57
2023/08/07 03:47:37;;;;;;;;;;;;;;;20.68;100.00;98907.94;5033669;28;1215;-58
2023/08/07 03:50:04;;;;;;;;;;;;;;;20.69;100.00;98897.47;5033592;28;890;-58
2023/08/07 03:52:31;;;;;;;;;;;;;;;20.74;100.00;98902.34;5032182;28;1441;-58
2023/08/07 03:54:57;;;;;;;;;;;;;;;20.72;100.00;98891.63;5033428;28;802;-58
2023/08/07 03:57:27;;;;;;;;;;;;;;;20.70;100.00;98902.59;5033429;28;858;-58
2023/08/07 03:59:58;;;;;;;;;;;;;;;20.78;100.00;98906.50;5033215;28;835;-58
2023/08/07 04:14:36;;;;;;;;;;;;;;;21.02;100.00;98919.50;5032580;28;790;-58
2023/08/07 04:17:02;;;;;;;;;;;;;;;21.00;100.00;98930.47;5033303;28;810;-58
2023/08/07 04:19:30;;;;;;;;;;;;;;;21.04;100.00;98933.03;5033018;28;810;-58
2023/08/07 04:21:56;;;;;;;;;;;;;;;21.03;100.00;98917.47;5032945;28;1902;-59
2023/08/07 04:24:23;;;;;;;;;;;;;;;21.04;100.00;98916.19;5033000;28;851;-58
2023/08/07 04:26:49;;;;;;;;;;;;;;;21.10;100.00;98939.50;5032914;28;846;-57
2023/08/07 04:29:16;;;;;;;;;;;;;;;21.13;100.00;98941.31;5032744;28;818;-58
2023/08/07 04:31:43;;;;;;;;;;;;;;;21.15;100.00;98942.38;5032921;28;830;-58
2023/08/07 04:34:10;;;;;;;;;;;;;;;21.22;100.00;98946.75;5032764;28;814;-58
2023/08/07 04:36:36;;;;;;;;;;;;;;;21.33;100.00;98948.91;5032737;28;865;-58
2023/08/07 04:39:02;;;;;;;;;;;;;;;21.37;100.00;98953.03;5032755;28;973;-58
2023/08/07 04:41:29;;;;;;;;;;;;;;;21.46;100.00;98956.97;5032967;28;866;-58
2023/08/07 04:43:56;;;;;;;;;;;;;;;21.57;100.00;98952.22;5031182;28;1882;-58
2023/08/07 04:46:22;;;;;;;;;;;;;;;21.94;100.00;98961.94;5032452;28;1043;-58
2023/08/07 04:48:49;;;;;;;;;;;;;;;22.78;100.00;98967.25;5032232;28;1407;-57
2023/08/07 04:51:15;;;;;;;;;;;;;;;23.56;100.00;98971.50;5032495;28;917;-58
2023/08/07 04:53:42;;;;;;;;;;;;;;;23.68;99.54;98972.25;5032331;28;907;-58
2023/08/07 04:56:08;;;;;;;;;;;;;;;23.53;100.00;98976.09;5032382;28;807;-58
2023/08/07 04:58:35;;;;;;;;;;;;;;;23.41;100.00;98974.59;5032123;28;862;-58
2023/08/07 05:01:03;;;;;;;;;;;;;;;23.42;100.00;98988.16;5032497;28;818;-57
2023/08/07 05:03:31;;;;;;;;;;;;;;;23.68;100.00;98984.31;5032131;28;1906;-57
2023/08/07 05:06:01;;;;;;;;;;;;;;;23.89;99.60;98984.09;5032248;28;815;-57
2023/08/07 05:08:28;;;;;;;;;;;;;;;24.00;98.02;98998.97;5032096;28;830;-58
2023/08/07 05:10:55;;;;;;;;;;;;;;;23.94;97.71;99005.88;5032180;28;799;-57
2023/08/07 05:13:22;;;;;;;;;;;;;;;23.75;94.23;98999.97;5032019;28;953;-57
2023/08/07 05:15:49;;;;;;;;;;;;;;;23.52;95.46;99008.41;5032239;28;806;-57
2023/08/07 05:18:17;;;;;;;;;;;;;;;23.46;96.60;99010.47;5031971;28;894;-58
2023/08/07 05:20:44;;;;;;;;;;;;;;;23.35;97.63;99004.81;5032221;28;807;-57
2023/08/07 05:23:11;;;;;;;;;;;;;;;23.10;98.68;99015.00;5032004;28;1886;-57
2023/08/07 05:25:38;;;;;;;;;;;;;;;22.92;100.00;99021.84;5031866;28;917;-57
2023/08/07 05:28:05;;;;;;;;;;;;;;;22.77;100.00;99030.50;5031855;28;795;-57
2023/08/07 05:30:32;;;;;;;;;;;;;;;22.57;100.00;99034.22;5032049;28;843;-57
2023/08/07 05:32:59;;;;;;;;;;;;;;;22.39;100.00;99030.53;5031765;28;859;-57
2023/08/07 05:35:26;;;;;;;;;;;;;;;22.25;100.00;99034.28;5031893;28;815;-58
2023/08/07 05:37:53;;;;;;;;;;;;;;;22.21;100.00;99039.34;5031806;28;806;-57
2023/08/07 05:40:19;;;;;;;;;;;;;;;22.27;100.00;99045.06;5031804;28;791;-57
2023/08/07 05:42:45;;;;;;;;;;;;;;;22.69;100.00;99046.31;5031710;28;1886;-58
2023/08/07 05:45:12;;;;;;;;;;;;;;;23.28;100.00;99048.38;5031945;28;877;-58
2023/08/07 05:47:39;;;;;;;;;;;;;;;23.94;96.77;99046.16;5031980;28;1019;-57
2023/08/07 05:50:05;;;;;;;;;;;;;;;24.17;93.86;99049.72;5031701;28;1327;-57
2023/08/07 05:52:33;;;;;;;;;;;;;;;24.58;92.16;99049.19;5031614;28;831;-57
2023/08/07 05:55:00;;;;;;;;;;;;;;;25.12;89.81;99055.66;5031692;28;874;-57
2023/08/07 05:57:27;;;;;;;;;;;;;;;25.38;86.26;99058.88;5031497;28;843;-57
2023/08/07 05:59:53;;;;;;;;;;;;;;;25.05;85.16;99069.03;5031704;28;862;-58
2023/08/07 06:02:20;;;;;;;;;;;;;;;25.31;85.16;99065.09;5031513;28;1948;-58
2023/08/07 06:04:48;;;;;;;;;;;;;;;26.31;80.67;99072.59;5031614;28;941;-57
2023/08/07 06:07:15;;;;;;;;;;;;;;;26.52;78.17;99073.66;5031533;28;915;-57
2023/08/07 06:09:41;;;;;;;;;;;;;;;27.75;73.35;99067.00;5034094;28;819;-57
2023/08/07 06:12:08;;;;;;;;;;;;;;;28.48;65.62;99072.25;5035310;28;860;-58
2023/08/07 06:14:33;;;;;;;;;;;;;;;29.17;63.02;99074.53;5035394;28;874;-57
2023/08/07 06:17:01;;;;;;;;;;;;;;;30.12;61.41;99072.34;5035435;28;885;-57
2023/08/07 06:19:28;;;;;;;;;;;;;;;30.23;58.50;99076.22;5035327;28;854;-57
2023/08/07 06:21:55;;;;;;;;;;;;;;;30.01;58.10;99078.31;5035225;28;1960;-57
2023/08/07 06:24:21;;;;;;;;;;;;;;;30.24;55.86;99078.53;5035161;28;791;-58
2023/08/07 06:26:48;;;;;;;;;;;;;;;29.81;54.99;99077.00;5035145;28;885;-58
2023/08/07 06:29:15;;;;;;;;;;;;;;;29.31;54.96;99082.50;5035093;28;842;-57
2023/08/07 06:31:42;;;;;;;;;;;;;;;28.52;56.35;99071.16;5035159;28;846;-57
2023/08/07 06:34:09;;;;;;;;;;;;;;;28.71;57.21;99080.34;5035043;28;844;-58
2023/08/07 06:36:36;;;;;;;;;;;;;;;29.36;55.24;99077.22;5035182;28;838;-57
2023/08/07 06:39:03;;;;;;;;;;;;;;;29.72;54.59;99086.00;5035199;28;834;-57
2023/08/07 06:41:30;;;;;;;;;;;;;;;30.48;52.51;99085.19;5034940;28;860;-57
2023/08/07 06:43:57;;;;;;;;;;;;;;;30.97;51.60;99084.38;5034847;28;1969;-57
2023/08/07 06:46:26;;;;;;;;;;;;;;;31.56;48.97;99097.19;5034832;28;947;-57
2023/08/07 06:48:53;;;;;;;;;;;;;;;31.81;48.54;99078.22;5034524;28;1295;-57
2023/08/07 06:51:20;;;;;;;;;;;;;;;31.45;46.55;99096.22;5033392;28;1375;-57
2023/08/07 06:53:47;;;;;;;;;;;;;;;31.16;47.41;99098.38;5034694;28;905;-57
2023/08/07 06:56:15;;;;;;;;;;;;;;;31.04;46.92;99086.50;5034540;28;838;-57
2023/08/07 06:58:42;;;;;;;;;;;;;;;30.80;47.70;99099.09;5034583;28;854;-57
2023/08/07 07:01:09;;;;;;;;;;;;;;;30.59;46.81;99104.09;5034510;28;819;-57
2023/08/07 07:03:36;;;;;;;;;;;;;;;30.37;48.31;99114.00;5034362;28;1906;-57
2023/08/07 07:06:03;;;;;;;;;;;;;;;30.91;47.18;99113.06;5033161;28;1463;-57
2023/08/07 07:08:30;;;;;;;;;;;;;;;31.05;46.25;99107.25;5034356;28;818;-57
2023/08/07 07:10:57;;;;;;;;;;;;;;;30.71;45.48;99108.94;5034454;28;811;-57
2023/08/07 07:13:24;;;;;;;;;;;;;;;30.32;46.03;99109.94;5034338;28;866;-57
2023/08/07 07:15:54;;;;;;;;;;;;;;;30.93;45.42;99101.09;5034338;28;826;-57
2023/08/07 07:18:21;;;;;;;;;;;;;;;31.53;44.07;99101.94;5022613;28;789;-58
2023/08/07 07:20:47;;;;;;;;;;;;;;;31.75;41.71;99103.38;5014320;28;827;-57
2023/08/07 07:23:14;;;;;;;;;;;;;;;31.20;40.70;99101.63;5014333;28;1886;-57
2023/08/07 07:25:41;;;;;;;;;;;;;;;31.42;40.73;99105.88;5014239;28;811;-57
2023/08/07 07:28:07;;;;;;;;;;;;;;;31.65;39.43;99106.00;5014256;28;615;-57
2023/08/07 07:30:34;;;;;;;;;;;;;;;31.48;39.50;99120.03;5014161;28;831;-57
2023/08/07 07:33:01;;;;;;;;;;;;;;;31.76;38.93;99116.31;5014193;28;843;-58
2023/08/07 07:35:27;;;;;;;;;;;;;;;32.12;37.89;99109.72;5014127;28;992;-58
2023/08/07 07:37:53;;;;;;;;;;;;;;;32.17;37.25;99105.91;5014022;28;886;-58
2023/08/07 07:40:20;;;;;;;;;;;;;;;32.27;37.48;99098.28;5014044;28;827;-57
2023/08/07 07:42:47;;;;;;;;;;;;;;;32.28;37.38;99105.53;5014128;28;1885;-58
2023/08/07 07:45:14;;;;;;;;;;;;;;;32.14;36.69;99107.06;5013919;28;859;-58
2023/08/07 07:47:40;;;;;;;;;;;;;;;32.40;36.93;99100.19;5014170;28;1021;-58
2023/08/07 07:50:08;;;;;;;;;;;;;;;32.45;36.09;99093.50;5013799;28;1312;-57
2023/08/07 07:52:35;;;;;;;;;;;;;;;32.48;36.07;99105.91;5012408;28;1454;-57
2023/08/07 07:55:01;;;;;;;;;;;;;;;31.99;36.17;99102.09;5013792;28;884;-58
2023/08/07 07:57:28;;;;;;;;;;;;;;;31.88;35.77;99097.47;5013573;28;869;-58
2023/08/07 07:59:55;;;;;;;;;;;;;;;32.09;36.43;99100.19;5013708;28;1035;-58
2023/08/07 08:02:24;;;;;;;;;;;;;;;32.71;35.48;99108.75;5012242;28;1918;-57
2023/08/07 08:04:51;;;;;;;;;;;;;;;32.95;34.52;99102.41;5013476;28;949;-57
2023/08/07 08:07:17;;;;;;;;;;;;;;;32.86;34.19;99107.97;5013498;28;791;-57
2023/08/07 08:09:44;;;;;;;;;;;;;;;32.53;33.74;99111.44;5013934;28;1670;-57
2023/08/07 08:12:11;;;;;;;;;;;;;;;32.34;34.15;99113.91;5013432;28;857;-57
2023/08/07 08:14:38;;;;;;;;;;;;;;;32.64;33.88;99109.53;5013426;28;846;-57
2023/08/07 08:17:04;;;;;;;;;;;;;;;32.54;33.05;99115.84;5013441;28;885;-57
2023/08/07 08:19:31;;;;;;;;;;;;;;;32.65;32.88;99111.84;5013316;28;851;-58
2023/08/07 08:21:58;;;;;;;;;;;;;;;32.91;32.68;99104.16;5013184;28;1886;-57
2023/08/07 08:24:25;;;;;;;;;;;;;;;32.58;32.18;99108.97;5013114;28;854;-57
2023/08/07 08:26:52;;;;;;;;;;;;;;;32.20;32.06;99109.72;5013470;28;841;-57
2023/08/07 08:29:19;;;;;;;;;;;;;;;32.26;32.86;99104.56;5013170;28;796;-57
2023/08/07 08:31:45;;;;;;;;;;;;;;;32.77;32.51;99106.47;5012668;28;803;-56
2023/08/07 08:34:12;;;;;;;;;;;;;;;32.80;32.38;99104.56;5013119;28;840;-57
2023/08/07 08:36:38;;;;;;;;;;;;;;;32.54;32.26;99106.50;5013045;28;894;-57
2023/08/07 08:39:05;;;;;;;;;;;;;;;32.52;32.26;99107.06;5013003;28;870;-58
2023/08/07 08:41:32;;;;;;;;;;;;;;;32.55;31.96;99113.75;5012924;28;823;-58
2023/08/07 08:43:59;;;;;;;;;;;;;;;32.20;31.17;99109.72;5012911;28;1886;-57
2023/08/07 08:46:29;;;;;;;;;;;;;;;32.31;30.84;99112.22;5012731;28;915;-57
2023/08/07 08:48:57;;;;;;;;;;;;;;;32.28;29.88;99111.25;5012689;28;1427;-57
2023/08/07 08:51:24;;;;;;;;;;;;;;;31.88;30.94;99114.63;5012777;28;894;-57
2023/08/07 08:53:56;;;;;;;;;;;;;;;31.84;31.64;99111.38;5012616;28;821;-57
2023/08/07 08:56:23;;;;;;;;;;;;;;;31.80;30.41;99105.25;5012694;28;982;-57
2023/08/07 08:58:51;;;;;;;;;;;;;;;31.74;31.88;99096.09;5012630;28;849;-57
2023/08/07 09:01:18;;;;;;;;;;;;;;;31.91;31.04;99092.72;5012534;28;953;-57
2023/08/07 09:03:48;;;;;;;;;;;;;;;31.64;30.82;99104.44;5012769;28;1914;-57
2023/08/07 09:06:15;;;;;;;;;;;;;;;31.19;30.55;99108.63;5011698;28;834;-57
2023/08/07 09:08:42;;;;;;;;;;;;;;;31.25;30.23;99108.47;5012510;28;1185;-57
2023/08/07 09:11:12;;;;;;;;;;;;;;;31.20;30.79;99113.03;5012759;28;823;-56
2023/08/07 09:13:39;;;;;;;;;;;;;;;31.38;31.54;99101.88;5012488;28;890;-56
2023/08/07 09:47:19;;;;;;;;;;;;;;;31.46;30.71;99097.00;5795676;23;1573;-57
2023/08/07 09:49:46;;;;;;;;;;;;;;;31.00;31.62;99105.31;5018511;28;1272;-57
2023/08/07 09:52:14;;;;;;;;;;;;;;;30.95;31.49;99101.28;5016226;28;909;-57
2023/08/07 09:54:41;;;;;;;;;;;;;;;31.14;30.38;99110.34;5015986;28;902;-57
2023/08/07 09:57:08;;;;;;;;;;;;;;;31.16;30.49;99097.59;5016135;28;857;-57
2023/08/07 09:59:35;;;;;;;;;;;;;;;31.04;30.15;99095.06;5016057;28;809;-57
2023/08/07 10:02:02;;;;;;;;;;;;;;;31.22;29.67;99093.25;5015875;28;1981;-57
2023/08/07 10:04:29;;;;;;;;;;;;;;;31.33;29.90;99109.28;5015887;28;826;-56
2023/08/07 10:06:56;;;;;;;;;;;;;;;31.09;29.95;99105.56;5015906;28;915;-56
2023/08/07 10:09:23;;;;;;;;;;;;;;;31.22;30.26;99098.97;5014641;28;807;-57
2023/08/07 10:11:50;;;;;;;;;;;;;;;31.52;29.72;99109.75;5014327;28;1200;-56
2023/08/07 10:14:17;;;;;;;;;;;;;;;31.78;29.96;99093.66;5015752;28;914;-57
2023/08/07 10:16:45;;;;;;;;;;;;;;;31.69;29.43;99094.19;5015478;28;970;-57
2023/08/07 10:19:12;;;;;;;;;;;;;;;31.26;29.97;99090.81;5015935;28;937;-57
2023/08/07 10:21:41;;;;;;;;;;;;;;;31.31;30.84;99094.81;5015557;28;924;-58
2023/08/07 10:24:09;;;;;;;;;;;;;;;31.61;30.06;99094.19;5015650;28;1903;-57
2023/08/07 10:26:37;;;;;;;;;;;;;;;31.81;28.23;99089.63;5015454;28;937;-57
2023/08/07 10:29:07;;;;;;;;;;;;;;;31.71;27.53;99086.59;5015453;28;807;-56
2023/08/07 10:31:34;;;;;;;;;;;;;;;32.07;27.72;99088.56;5014244;28;811;-57
2023/08/07 10:34:01;;;;;;;;;;;;;;;32.07;28.06;99094.28;5015373;28;893;-56
2023/08/07 10:36:35;;;;;;;;;;;;;;;31.77;27.73;99086.38;5014087;28;1333;-57
2023/08/07 10:39:08;;;;;;;;;;;;;;;31.71;27.26;99105.81;5015136;28;859;-57
2023/08/07 10:41:42;;;;;;;;;;;;;;;31.68;27.09;99098.38;5015166;28;830;-58
2023/08/07 10:44:18;;;;;;;;;;;;;;;31.86;26.85;99094.44;5015150;28;1882;-58
2023/08/07 10:47:01;;;;;;;;;;;;;;;31.87;27.22;99093.06;5015209;28;1062;-57
2023/08/07 10:49:37;;;;;;;;;;;;;;;32.07;27.34;99093.50;5013329;28;1270;-57
2023/08/07 10:52:07;;;;;;;;;;;;;;;32.70;26.69;99093.69;5014958;28;819;-57
2023/08/07 10:54:47;;;;;;;;;;;;;;;33.03;26.85;99095.91;5014586;28;862;-57
2023/08/07 10:57:15;;;;;;;;;;;;;;;33.15;26.33;99103.53;5014854;28;815;-57
2023/08/07 11:00:01;;;;;;;;;;;;;;;33.16;25.43;99107.16;5014956;28;882;-59
2023/08/07 11:02:30;;;;;;;;;;;;;;;33.15;25.15;99108.50;5014790;28;1974;-57
2023/08/07 11:04:56;;;;;;;;;;;;;;;33.31;25.50;99107.09;5014711;28;784;-58
2023/08/07 11:07:27;;;;;;;;;;;;;;;33.10;25.30;99109.47;5014807;28;901;-58
2023/08/07 11:09:54;;;;;;;;;;;;;;;32.84;25.28;99107.78;5014663;28;878;-57
2023/08/07 11:12:21;;;;;;;;;;;;;;;33.25;24.71;99102.94;5014609;28;872;-58
2023/08/07 11:14:47;;;;;;;;;;;;;;;33.32;25.11;99100.00;5014486;28;972;-58
2023/08/07 11:17:14;;;;;;;;;;;;;;;33.41;24.96;99100.75;5014480;28;794;-57
2023/08/07 11:19:41;;;;;;;;;;;;;;;33.54;24.42;99094.75;5014469;28;811;-58
2023/08/07 11:22:08;;;;;;;;;;;;;;;33.66;24.54;99086.53;5014446;28;1957;-59
2023/08/07 11:24:35;;;;;;;;;;;;;;;33.66;24.72;99093.00;5013192;28;1315;-58
2023/08/07 11:27:01;;;;;;;;;;;;;;;33.73;25.96;99089.31;5014509;28;787;-58
2023/08/07 11:29:28;;;;;;;;;;;;;;;33.97;25.31;99095.69;5014523;28;862;-58
2023/08/07 11:31:54;;;;;;;;;;;;;;;34.26;25.11;99101.03;5014307;28;827;-58
2023/08/07 11:34:22;;;;;;;;;;;;;;;34.67;24.22;99093.78;5014248;28;837;-59
2023/08/07 11:36:48;;;;;;;;;;;;;;;34.76;23.48;99093.13;5014162;28;826;-59
2023/08/07 11:39:16;;;;;;;;;;;;;;;34.79;23.80;99088.31;5014236;28;869;-59
2023/08/07 11:41:44;;;;;;;;;;;;;;;34.85;23.73;99093.81;5014228;28;841;-58
2023/08/07 11:44:11;;;;;;;;;;;;;;;35.04;23.32;99088.22;5014117;28;1933;-58
2023/08/07 11:46:38;;;;;;;;;;;;;;;34.99;23.00;99092.09;5012725;28;1072;-60
2023/08/07 11:49:05;;;;;;;;;;;;;;;34.72;22.77;99083.44;5013772;28;1402;-58
2023/08/07 11:51:32;;;;;;;;;;;;;;;35.01;22.61;99086.53;5013945;28;807;-59
2023/08/07 11:53:59;;;;;;;;;;;;;;;35.17;22.52;99087.91;5013904;28;842;-59
2023/08/07 11:56:25;;;;;;;;;;;;;;;35.47;22.76;99083.13;5013939;28;869;-59
2023/08/07 11:58:53;;;;;;;;;;;;;;;35.48;22.63;99087.50;5013789;28;898;-60
2023/08/07 12:01:23;;;;;;;;;;;;;;;35.34;22.98;99081.38;5013632;28;946;-59
2023/08/07 12:03:54;;;;;;;;;;;;;;;35.83;22.66;99075.94;5013678;28;1910;-60
2023/08/07 12:06:21;;;;;;;;;;;;;;;35.94;22.16;99084.00;5012732;28;841;-59
2023/08/07 12:08:49;;;;;;;;;;;;;;;36.28;21.68;99070.81;5013558;28;811;-59
2023/08/07 12:11:15;;;;;;;;;;;;;;;36.82;21.08;99074.88;5013416;28;869;-59
2023/08/07 12:13:44;;;;;;;;;;;;;;;37.74;20.82;99064.31;5013527;28;881;-59
2023/08/07 12:16:17;;;;;;;;;;;;;;;38.22;20.71;99071.25;5013288;28;895;-59
2023/08/07 12:18:48;;;;;;;;;;;;;;;38.14;21.15;99074.34;5013459;28;1149;-59
2023/08/07 12:21:23;;;;;;;;;;;;;;;38.10;21.51;99069.03;5013389;28;823;-59
2023/08/07 12:23:51;;;;;;;;;;;;;;;38.41;21.45;99065.38;5013382;28;1886;-59
2023/08/07 12:26:17;;;;;;;;;;;;;;;39.01;21.29;99067.25;5013183;28;957;-60
2023/08/07 12:28:44;;;;;;;;;;;;;;;38.83;20.70;99071.78;5013468;28;866;-59
2023/08/07 12:31:10;;;;;;;;;;;;;;;38.54;19.13;99069.88;5013097;28;882;-60
2023/08/07 12:33:37;;;;;;;;;;;;;;;38.79;18.05;99075.94;5013087;28;803;-59
2023/08/07 12:36:03;;;;;;;;;;;;;;;38.53;18.17;99077.00;5013050;28;814;-59
2023/08/07 12:38:30;;;;;;;;;;;;;;;37.93;17.90;99069.25;5013009;28;810;-59
2023/08/07 12:40:57;;;;;;;;;;;;;;;37.50;17.69;99072.69;5012997;28;842;-59
2023/08/07 12:43:25;;;;;;;;;;;;;;;37.39;18.29;99068.31;5012857;28;1947;-59
2023/08/07 12:45:52;;;;;;;;;;;;;;;37.77;18.16;99074.63;5012850;28;834;-59
2023/08/07 12:48:19;;;;;;;;;;;;;;;37.82;17.92;99075.69;5013104;28;1189;-59
2023/08/07 12:50:46;;;;;;;;;;;;;;;38.07;19.60;99081.03;5012849;28;882;-59
2023/08/07 12:53:14;;;;;;;;;;;;;;;38.08;19.99;99077.53;5012668;28;1085;-59
2023/08/07 12:55:41;;;;;;;;;;;;;;;38.33;20.65;99082.13;5013034;28;827;-59
2023/08/07 12:58:07;;;;;;;;;;;;;;;37.72;21.16;99087.22;5012717;28;828;-59
2023/08/07 13:00:34;;;;;;;;;;;;;;;37.57;21.18;99088.31;5011306;28;1263;-59
2023/08/07 13:03:01;;;;;;;;;;;;;;;37.18;21.05;99099.91;5012573;28;1992;-59
2023/08/07 13:05:29;;;;;;;;;;;;;;;37.62;20.51;99101.69;5012743;28;814;-59
2023/08/07 13:07:58;;;;;;;;;;;;;;;38.46;18.27;99090.25;5012872;28;834;-59
2023/08/07 13:10:27;;;;;;;;;;;;;;;38.69;17.02;99089.69;5012416;28;866;-59
2023/08/07 13:12:54;;;;;;;;;;;;;;;38.20;15.89;99089.19;5011244;28;1367;-59
2023/08/07 13:15:20;;;;;;;;;;;;;;;38.08;16.67;99083.31;5012289;28;814;-59
2023/08/07 13:17:46;;;;;;;;;;;;;;;38.10;16.63;99086.34;5012217;28;1049;-59
2023/08/07 13:20:13;;;;;;;;;;;;;;;37.76;16.51;99087.53;5012361;28;807;-59
2023/08/07 13:22:42;;;;;;;;;;;;;;;38.02;15.92;99096.53;5012256;28;1943;-59
2023/08/07 13:25:08;;;;;;;;;;;;;;;37.69;16.24;99097.09;5012255;28;838;-58
2023/08/07 13:27:35;;;;;;;;;;;;;;;37.51;16.85;99091.53;5012492;28;819;-58
2023/08/07 13:30:02;;;;;;;;;;;;;;;37.62;17.00;99098.81;5012276;28;816;-59
2023/08/07 13:32:29;;;;;;;;;;;;;;;37.57;16.62;99094.84;5012149;28;873;-59
2023/08/07 13:34:56;;;;;;;;;;;;;;;37.59;17.47;99094.25;5011011;28;1169;-58
2023/08/07 13:37:23;;;;;;;;;;;;;;;37.32;18.08;99103.06;5012086;28;856;-58
2023/08/07 13:39:51;;;;;;;;;;;;;;;37.28;18.56;99105.63;5012233;28;858;-58
2023/08/07 13:42:19;;;;;;;;;;;;;;;37.73;18.09;99091.63;5012253;28;1885;-58
2023/08/07 13:44:45;;;;;;;;;;;;;;;38.13;17.70;99093.00;5012115;28;880;-58